sensor_id;sensor_type;location;lat;lon;timestamp;P1;durP1;ratioP1;P2;durP2;ratioP2
81716;SDS011;71269;44.108;3.074;2023-07-31T06:33:07;5.22;;;1.80;;
81716;SDS011;71269;44.108;3.074;2023-07-31T06:35:34;6.32;;;1.83;;
81716;SDS011;71269;44.108;3.074;2023-07-31T06:37:59;6.22;;;2.17;;
81716;SDS011;71269;44.108;3.074;2023-07-31T06:40:25;7.20;;;1.80;;
81716;SDS011;71269;44.108;3.074;2023-07-31T06:42:50;4.35;;;1.95;;
81716;SDS011;71269;44.108;3.074;2023-07-31T06:45:15;7.82;;;2.17;;
81716;SDS011;71269;44.108;3.074;2023-07-31T06:47:41;5.45;;;2.08;;
81716;SDS011;71269;44.108;3.074;2023-07-31T06:50:07;7.82;;;2.05;;
81716;SDS011;71269;44.108;3.074;2023-07-31T06:52:33;5.70;;;2.13;;
81716;SDS011;71269;44.108;3.074;2023-07-31T06:57:28;11.43;;;2.67;;
81716;SDS011;71269;44.108;3.074;2023-07-31T06:59:54;8.82;;;2.47;;
81716;SDS011;71269;44.108;3.074;2023-07-31T07:02:19;6.97;;;2.40;;
81716;SDS011;71269;44.108;3.074;2023-07-31T07:04:45;8.20;;;2.20;;
81716;SDS011;71269;44.108;3.074;2023-07-31T07:07:10;7.28;;;2.15;;
81716;SDS011;71269;44.108;3.074;2023-07-31T07:09:35;6.40;;;2.20;;
81716;SDS011;71269;44.108;3.074;2023-07-31T07:12:01;5.93;;;2.10;;
81716;SDS011;71269;44.108;3.074;2023-07-31T07:14:26;7.68;;;2.28;;
81716;SDS011;71269;44.108;3.074;2023-07-31T07:16:51;8.15;;;2.47;;
81716;SDS011;71269;44.108;3.074;2023-07-31T07:19:17;7.07;;;2.38;;
81716;SDS011;71269;44.108;3.074;2023-07-31T07:21:42;4.38;;;1.80;;
81716;SDS011;71269;44.108;3.074;2023-07-31T07:24:07;6.38;;;1.73;;
81716;SDS011;71269;44.108;3.074;2023-07-31T07:26:33;6.28;;;2.45;;
81716;SDS011;71269;44.108;3.074;2023-07-31T07:28:58;5.63;;;2.10;;
81716;SDS011;71269;44.108;3.074;2023-07-31T07:31:26;7.72;;;2.40;;
81716;SDS011;71269;44.108;3.074;2023-07-31T07:33:51;5.03;;;1.98;;
81716;SDS011;71269;44.108;3.074;2023-07-31T07:36:17;4.80;;;1.90;;
81716;SDS011;71269;44.108;3.074;2023-07-31T07:38:42;5.97;;;2.15;;
81716;SDS011;71269;44.108;3.074;2023-07-31T07:41:07;7.55;;;2.20;;
81716;SDS011;71269;44.108;3.074;2023-07-31T07:43:33;6.47;;;1.83;;
81716;SDS011;71269;44.108;3.074;2023-07-31T07:45:58;8.15;;;2.67;;
81716;SDS011;71269;44.108;3.074;2023-07-31T07:48:24;4.85;;;1.80;;
81716;SDS011;71269;44.108;3.074;2023-07-31T07:50:50;6.93;;;2.10;;
81716;SDS011;71269;44.108;3.074;2023-07-31T07:53:15;6.22;;;2.00;;
81716;SDS011;71269;44.108;3.074;2023-07-31T07:55:41;7.20;;;2.40;;
81716;SDS011;71269;44.108;3.074;2023-07-31T07:58:07;5.03;;;1.90;;
81716;SDS011;71269;44.108;3.074;2023-07-31T08:00:33;7.10;;;2.25;;
81716;SDS011;71269;44.108;3.074;2023-07-31T08:02:58;8.75;;;2.20;;
81716;SDS011;71269;44.108;3.074;2023-07-31T08:05:23;6.93;;;2.00;;
81716;SDS011;71269;44.108;3.074;2023-07-31T08:07:49;7.40;;;2.10;;
81716;SDS011;71269;44.108;3.074;2023-07-31T08:10:14;7.05;;;2.08;;
81716;SDS011;71269;44.108;3.074;2023-07-31T08:12:39;7.68;;;1.80;;
81716;SDS011;71269;44.108;3.074;2023-07-31T08:15:05;7.18;;;2.28;;
81716;SDS011;71269;44.108;3.074;2023-07-31T08:17:31;7.55;;;1.90;;
81716;SDS011;71269;44.108;3.074;2023-07-31T08:19:56;5.95;;;1.70;;
81716;SDS011;71269;44.108;3.074;2023-07-31T08:22:23;6.95;;;1.90;;
81716;SDS011;71269;44.108;3.074;2023-07-31T08:24:49;7.38;;;2.75;;
81716;SDS011;71269;44.108;3.074;2023-07-31T08:27:14;5.40;;;2.00;;
81716;SDS011;71269;44.108;3.074;2023-07-31T08:29:39;5.22;;;1.95;;
81716;SDS011;71269;44.108;3.074;2023-07-31T08:32:05;3.83;;;1.70;;
81716;SDS011;71269;44.108;3.074;2023-07-31T08:34:31;4.38;;;1.80;;
81716;SDS011;71269;44.108;3.074;2023-07-31T08:36:56;5.20;;;1.98;;
81716;SDS011;71269;44.108;3.074;2023-07-31T08:39:21;5.78;;;1.88;;
81716;SDS011;71269;44.108;3.074;2023-07-31T08:41:47;9.38;;;2.17;;
81716;SDS011;71269;44.108;3.074;2023-07-31T08:44:12;5.97;;;2.17;;
81716;SDS011;71269;44.108;3.074;2023-07-31T08:46:39;8.07;;;2.45;;
81716;SDS011;71269;44.108;3.074;2023-07-31T08:49:04;4.72;;;2.00;;
81716;SDS011;71269;44.108;3.074;2023-07-31T08:51:34;5.68;;;1.95;;
81716;SDS011;71269;44.108;3.074;2023-07-31T08:54:00;7.63;;;2.00;;
81716;SDS011;71269;44.108;3.074;2023-07-31T08:56:26;5.03;;;1.92;;
81716;SDS011;71269;44.108;3.074;2023-07-31T08:58:52;4.88;;;1.70;;
81716;SDS011;71269;44.108;3.074;2023-07-31T09:01:18;7.38;;;2.00;;
81716;SDS011;71269;44.108;3.074;2023-07-31T09:03:43;7.13;;;2.35;;
81716;SDS011;71269;44.108;3.074;2023-07-31T09:06:09;7.13;;;1.92;;
81716;SDS011;71269;44.108;3.074;2023-07-31T09:08:35;10.70;;;1.85;;
81716;SDS011;71269;44.108;3.074;2023-07-31T09:11:01;5.50;;;1.77;;
81716;SDS011;71269;44.108;3.074;2023-07-31T09:13:29;5.30;;;2.15;;
81716;SDS011;71269;44.108;3.074;2023-07-31T09:15:55;7.78;;;2.13;;
81716;SDS011;71269;44.108;3.074;2023-07-31T09:18:20;5.80;;;2.05;;
81716;SDS011;71269;44.108;3.074;2023-07-31T09:20:59;4.68;;;1.98;;
81716;SDS011;71269;44.108;3.074;2023-07-31T09:23:44;4.53;;;1.90;;
81716;SDS011;71269;44.108;3.074;2023-07-31T09:26:10;5.80;;;1.70;;
81716;SDS011;71269;44.108;3.074;2023-07-31T09:28:35;4.68;;;1.80;;
81716;SDS011;71269;44.108;3.074;2023-07-31T09:31:01;5.13;;;1.83;;
81716;SDS011;71269;44.108;3.074;2023-07-31T09:33:26;4.65;;;1.90;;
81716;SDS011;71269;44.108;3.074;2023-07-31T09:35:52;6.55;;;2.47;;
81716;SDS011;71269;44.108;3.074;2023-07-31T09:38:17;6.57;;;2.10;;
81716;SDS011;71269;44.108;3.074;2023-07-31T09:40:43;5.32;;;1.90;;
81716;SDS011;71269;44.108;3.074;2023-07-31T09:43:20;4.85;;;1.73;;
81716;SDS011;71269;44.108;3.074;2023-07-31T09:45:46;5.93;;;2.03;;
81716;SDS011;71269;44.108;3.074;2023-07-31T09:48:12;8.57;;;2.17;;
81716;SDS011;71269;44.108;3.074;2023-07-31T09:50:41;5.07;;;1.90;;
81716;SDS011;71269;44.108;3.074;2023-07-31T09:53:08;5.43;;;1.85;;
81716;SDS011;71269;44.108;3.074;2023-07-31T09:55:34;4.63;;;1.80;;
81716;SDS011;71269;44.108;3.074;2023-07-31T09:58:02;5.65;;;1.90;;
81716;SDS011;71269;44.108;3.074;2023-07-31T10:00:29;6.35;;;2.53;;
81716;SDS011;71269;44.108;3.074;2023-07-31T10:02:55;4.60;;;1.98;;
81716;SDS011;71269;44.108;3.074;2023-07-31T10:05:24;4.85;;;1.98;;
81716;SDS011;71269;44.108;3.074;2023-07-31T10:07:57;5.57;;;2.00;;
81716;SDS011;71269;44.108;3.074;2023-07-31T10:10:22;4.75;;;2.00;;
81716;SDS011;71269;44.108;3.074;2023-07-31T10:12:49;4.97;;;2.10;;
81716;SDS011;71269;44.108;3.074;2023-07-31T10:15:15;5.75;;;2.10;;
81716;SDS011;71269;44.108;3.074;2023-07-31T10:17:40;5.57;;;1.70;;
81716;SDS011;71269;44.108;3.074;2023-07-31T10:20:06;5.32;;;2.00;;
81716;SDS011;71269;44.108;3.074;2023-07-31T10:22:32;5.38;;;2.00;;
81716;SDS011;71269;44.108;3.074;2023-07-31T10:24:59;4.32;;;1.80;;
81716;SDS011;71269;44.108;3.074;2023-07-31T10:27:25;6.25;;;1.92;;
81716;SDS011;71269;44.108;3.074;2023-07-31T10:29:51;8.30;;;2.35;;
81716;SDS011;71269;44.108;3.074;2023-07-31T10:32:18;5.57;;;1.80;;
81716;SDS011;71269;44.108;3.074;2023-07-31T10:34:44;5.70;;;1.90;;
81716;SDS011;71269;44.108;3.074;2023-07-31T10:37:22;5.38;;;2.35;;
81716;SDS011;71269;44.108;3.074;2023-07-31T10:39:59;6.47;;;2.53;;
81716;SDS011;71269;44.108;3.074;2023-07-31T10:42:36;3.38;;;1.83;;
81716;SDS011;71269;44.108;3.074;2023-07-31T10:45:07;4.38;;;1.80;;
81716;SDS011;71269;44.108;3.074;2023-07-31T10:47:38;4.90;;;1.98;;
81716;SDS011;71269;44.108;3.074;2023-07-31T10:50:20;5.07;;;2.17;;
81716;SDS011;71269;44.108;3.074;2023-07-31T10:52:50;4.53;;;2.10;;
81716;SDS011;71269;44.108;3.074;2023-07-31T10:55:30;3.63;;;1.52;;
81716;SDS011;71269;44.108;3.074;2023-07-31T10:58:07;5.30;;;1.90;;
81716;SDS011;71269;44.108;3.074;2023-07-31T11:00:43;4.28;;;1.70;;
81716;SDS011;71269;44.108;3.074;2023-07-31T11:03:10;4.97;;;1.70;;
81716;SDS011;71269;44.108;3.074;2023-07-31T11:05:41;6.55;;;1.92;;
81716;SDS011;71269;44.108;3.074;2023-07-31T11:10:45;4.95;;;2.13;;
81716;SDS011;71269;44.108;3.074;2023-07-31T11:13:11;4.30;;;1.90;;
81716;SDS011;71269;44.108;3.074;2023-07-31T11:15:38;5.43;;;1.90;;
81716;SDS011;71269;44.108;3.074;2023-07-31T11:18:04;4.80;;;1.90;;
81716;SDS011;71269;44.108;3.074;2023-07-31T11:20:30;3.78;;;1.85;;
81716;SDS011;71269;44.108;3.074;2023-07-31T11:23:03;6.05;;;1.90;;
81716;SDS011;71269;44.108;3.074;2023-07-31T11:25:31;2.95;;;1.60;;
81716;SDS011;71269;44.108;3.074;2023-07-31T11:28:06;4.20;;;1.80;;
81716;SDS011;71269;44.108;3.074;2023-07-31T11:30:36;5.25;;;1.50;;
81716;SDS011;71269;44.108;3.074;2023-07-31T11:33:02;4.55;;;1.60;;
81716;SDS011;71269;44.108;3.074;2023-07-31T11:35:32;5.10;;;2.40;;
81716;SDS011;71269;44.108;3.074;2023-07-31T11:37:59;4.83;;;1.40;;
81716;SDS011;71269;44.108;3.074;2023-07-31T11:40:25;4.18;;;1.88;;
81716;SDS011;71269;44.108;3.074;2023-07-31T11:42:57;4.45;;;1.52;;
81716;SDS011;71269;44.108;3.074;2023-07-31T11:45:26;3.30;;;1.48;;
81716;SDS011;71269;44.108;3.074;2023-07-31T11:47:53;4.65;;;1.92;;
81716;SDS011;71269;44.108;3.074;2023-07-31T11:50:20;3.40;;;1.58;;
81716;SDS011;71269;44.108;3.074;2023-07-31T11:52:46;3.80;;;1.70;;
81716;SDS011;71269;44.108;3.074;2023-07-31T11:55:13;3.08;;;1.42;;
81716;SDS011;71269;44.108;3.074;2023-07-31T11:57:40;4.63;;;1.70;;
81716;SDS011;71269;44.108;3.074;2023-07-31T12:00:09;4.22;;;1.77;;
81716;SDS011;71269;44.108;3.074;2023-07-31T12:02:39;4.43;;;1.60;;
81716;SDS011;71269;44.108;3.074;2023-07-31T12:05:05;4.47;;;1.77;;
81716;SDS011;71269;44.108;3.074;2023-07-31T12:07:46;5.60;;;1.50;;
81716;SDS011;71269;44.108;3.074;2023-07-31T12:10:22;3.65;;;1.45;;
81716;SDS011;71269;44.108;3.074;2023-07-31T12:13:03;5.32;;;1.60;;
81716;SDS011;71269;44.108;3.074;2023-07-31T12:17:58;2.85;;;1.30;;
81716;SDS011;71269;44.108;3.074;2023-07-31T12:20:24;5.93;;;1.55;;
81716;SDS011;71269;44.108;3.074;2023-07-31T12:22:49;4.78;;;1.50;;
81716;SDS011;71269;44.108;3.074;2023-07-31T12:25:15;3.90;;;1.30;;
81716;SDS011;71269;44.108;3.074;2023-07-31T12:27:44;3.67;;;1.40;;
81716;SDS011;71269;44.108;3.074;2023-07-31T12:30:56;2.88;;;1.30;;
81716;SDS011;71269;44.108;3.074;2023-07-31T12:33:03;3.20;;;1.33;;
81716;SDS011;71269;44.108;3.074;2023-07-31T12:35:46;3.63;;;1.30;;
81716;SDS011;71269;44.108;3.074;2023-07-31T12:38:12;3.95;;;1.30;;
81716;SDS011;71269;44.108;3.074;2023-07-31T12:40:39;4.00;;;1.50;;
81716;SDS011;71269;44.108;3.074;2023-07-31T12:43:05;3.58;;;1.38;;
81716;SDS011;71269;44.108;3.074;2023-07-31T12:45:31;3.95;;;1.58;;
81716;SDS011;71269;44.108;3.074;2023-07-31T12:47:57;3.20;;;1.33;;
81716;SDS011;71269;44.108;3.074;2023-07-31T12:50:23;4.57;;;1.58;;
81716;SDS011;71269;44.108;3.074;2023-07-31T12:52:49;4.57;;;1.55;;
81716;SDS011;71269;44.108;3.074;2023-07-31T12:55:14;3.15;;;1.50;;
81716;SDS011;71269;44.108;3.074;2023-07-31T12:57:40;3.50;;;1.52;;
81716;SDS011;71269;44.108;3.074;2023-07-31T13:00:06;3.92;;;1.50;;
81716;SDS011;71269;44.108;3.074;2023-07-31T13:02:32;3.90;;;1.42;;
81716;SDS011;71269;44.108;3.074;2023-07-31T13:04:57;4.03;;;1.50;;
81716;SDS011;71269;44.108;3.074;2023-07-31T13:07:23;3.80;;;1.40;;
81716;SDS011;71269;44.108;3.074;2023-07-31T13:09:48;3.47;;;1.42;;
81716;SDS011;71269;44.108;3.074;2023-07-31T13:12:13;3.95;;;1.52;;
81716;SDS011;71269;44.108;3.074;2023-07-31T13:14:39;3.75;;;1.60;;
81716;SDS011;71269;44.108;3.074;2023-07-31T13:17:04;4.00;;;1.52;;
81716;SDS011;71269;44.108;3.074;2023-07-31T13:19:30;3.47;;;1.50;;
81716;SDS011;71269;44.108;3.074;2023-07-31T13:21:55;3.95;;;1.50;;
81716;SDS011;71269;44.108;3.074;2023-07-31T13:24:20;3.70;;;1.45;;
81716;SDS011;71269;44.108;3.074;2023-07-31T13:26:46;4.20;;;1.70;;
81716;SDS011;71269;44.108;3.074;2023-07-31T13:29:11;3.10;;;1.50;;
81716;SDS011;71269;44.108;3.074;2023-07-31T13:31:37;2.85;;;1.40;;
81716;SDS011;71269;44.108;3.074;2023-07-31T13:34:02;3.53;;;1.60;;
81716;SDS011;71269;44.108;3.074;2023-07-31T13:36:28;3.47;;;1.70;;
81716;SDS011;71269;44.108;3.074;2023-07-31T13:38:53;3.83;;;1.58;;
81716;SDS011;71269;44.108;3.074;2023-07-31T13:41:18;4.32;;;1.65;;
81716;SDS011;71269;44.108;3.074;2023-07-31T13:43:44;4.18;;;1.67;;
81716;SDS011;71269;44.108;3.074;2023-07-31T13:46:09;3.58;;;1.52;;
81716;SDS011;71269;44.108;3.074;2023-07-31T13:48:36;4.45;;;1.80;;
81716;SDS011;71269;44.108;3.074;2023-07-31T13:51:01;4.10;;;1.85;;
81716;SDS011;71269;44.108;3.074;2023-07-31T13:53:27;2.63;;;1.38;;
81716;SDS011;71269;44.108;3.074;2023-07-31T13:55:52;4.63;;;1.77;;
81716;SDS011;71269;44.108;3.074;2023-07-31T13:58:18;4.95;;;1.75;;
81716;SDS011;71269;44.108;3.074;2023-07-31T14:00:43;4.18;;;2.00;;
81716;SDS011;71269;44.108;3.074;2023-07-31T14:03:08;6.32;;;1.85;;
81716;SDS011;71269;44.108;3.074;2023-07-31T14:05:34;4.00;;;1.70;;
81716;SDS011;71269;44.108;3.074;2023-07-31T14:08:00;3.42;;;1.60;;
81716;SDS011;71269;44.108;3.074;2023-07-31T14:10:25;4.07;;;1.88;;
81716;SDS011;71269;44.108;3.074;2023-07-31T14:12:50;5.07;;;2.10;;
81716;SDS011;71269;44.108;3.074;2023-07-31T14:15:16;3.92;;;1.70;;
81716;SDS011;71269;44.108;3.074;2023-07-31T14:17:41;5.10;;;2.00;;
81716;SDS011;71269;44.108;3.074;2023-07-31T14:20:07;3.72;;;1.80;;
81716;SDS011;71269;44.108;3.074;2023-07-31T14:22:33;4.65;;;1.77;;
81716;SDS011;71269;44.108;3.074;2023-07-31T14:24:59;4.28;;;1.60;;
81716;SDS011;71269;44.108;3.074;2023-07-31T14:27:24;4.93;;;2.08;;
81716;SDS011;71269;44.108;3.074;2023-07-31T14:29:50;3.33;;;1.70;;
81716;SDS011;71269;44.108;3.074;2023-07-31T14:32:15;4.18;;;1.85;;
81716;SDS011;71269;44.108;3.074;2023-07-31T14:34:41;5.72;;;1.90;;
81716;SDS011;71269;44.108;3.074;2023-07-31T14:37:06;4.43;;;1.73;;
81716;SDS011;71269;44.108;3.074;2023-07-31T14:39:31;3.75;;;1.73;;
81716;SDS011;71269;44.108;3.074;2023-07-31T14:41:57;5.50;;;1.70;;
81716;SDS011;71269;44.108;3.074;2023-07-31T14:44:22;4.20;;;1.77;;
81716;SDS011;71269;44.108;3.074;2023-07-31T14:46:48;5.13;;;1.70;;
81716;SDS011;71269;44.108;3.074;2023-07-31T14:49:13;4.53;;;2.17;;
81716;SDS011;71269;44.108;3.074;2023-07-31T14:51:39;4.40;;;1.70;;
81716;SDS011;71269;44.108;3.074;2023-07-31T14:54:04;4.20;;;2.00;;
81716;SDS011;71269;44.108;3.074;2023-07-31T14:56:29;4.65;;;1.77;;
81716;SDS011;71269;44.108;3.074;2023-07-31T14:58:55;4.95;;;1.90;;
81716;SDS011;71269;44.108;3.074;2023-07-31T15:01:20;5.45;;;2.08;;
81716;SDS011;71269;44.108;3.074;2023-07-31T15:03:46;5.85;;;2.33;;
81716;SDS011;71269;44.108;3.074;2023-07-31T15:06:11;5.57;;;2.20;;
81716;SDS011;71269;44.108;3.074;2023-07-31T15:08:38;4.32;;;2.00;;
81716;SDS011;71269;44.108;3.074;2023-07-31T15:11:03;4.28;;;1.90;;
81716;SDS011;71269;44.108;3.074;2023-07-31T15:13:29;4.93;;;2.15;;
81716;SDS011;71269;44.108;3.074;2023-07-31T15:15:54;3.72;;;2.00;;
81716;SDS011;71269;44.108;3.074;2023-07-31T15:18:20;3.78;;;1.88;;
81716;SDS011;71269;44.108;3.074;2023-07-31T15:20:46;4.55;;;1.88;;
81716;SDS011;71269;44.108;3.074;2023-07-31T15:23:11;5.95;;;2.08;;
81716;SDS011;71269;44.108;3.074;2023-07-31T15:25:37;5.68;;;2.00;;
81716;SDS011;71269;44.108;3.074;2023-07-31T15:28:02;4.47;;;1.90;;
81716;SDS011;71269;44.108;3.074;2023-07-31T15:30:28;4.45;;;2.00;;
81716;SDS011;71269;44.108;3.074;2023-07-31T15:32:54;4.78;;;2.17;;
81716;SDS011;71269;44.108;3.074;2023-07-31T15:35:19;6.05;;;2.00;;
81716;SDS011;71269;44.108;3.074;2023-07-31T15:37:45;5.28;;;2.20;;
81716;SDS011;71269;44.108;3.074;2023-07-31T15:40:10;5.95;;;2.33;;
81716;SDS011;71269;44.108;3.074;2023-07-31T15:42:36;5.03;;;2.20;;
81716;SDS011;71269;44.108;3.074;2023-07-31T15:45:05;4.93;;;2.00;;
81716;SDS011;71269;44.108;3.074;2023-07-31T15:47:31;3.90;;;1.92;;
81716;SDS011;71269;44.108;3.074;2023-07-31T15:49:56;4.30;;;1.85;;
81716;SDS011;71269;44.108;3.074;2023-07-31T15:52:22;5.55;;;2.33;;
81716;SDS011;71269;44.108;3.074;2023-07-31T15:54:47;5.22;;;2.40;;
81716;SDS011;71269;44.108;3.074;2023-07-31T15:57:13;4.50;;;2.03;;
81716;SDS011;71269;44.108;3.074;2023-07-31T15:59:38;6.15;;;2.28;;
81716;SDS011;71269;44.108;3.074;2023-07-31T16:02:03;5.97;;;2.10;;
81716;SDS011;71269;44.108;3.074;2023-07-31T16:04:29;4.63;;;1.90;;
81716;SDS011;71269;44.108;3.074;2023-07-31T16:06:54;6.85;;;2.17;;
81716;SDS011;71269;44.108;3.074;2023-07-31T16:09:20;5.63;;;2.35;;
81716;SDS011;71269;44.108;3.074;2023-07-31T16:11:46;4.95;;;2.22;;
81716;SDS011;71269;44.108;3.074;2023-07-31T16:14:12;5.55;;;2.45;;
81716;SDS011;71269;44.108;3.074;2023-07-31T16:16:37;7.00;;;2.40;;
81716;SDS011;71269;44.108;3.074;2023-07-31T16:19:03;6.63;;;2.50;;
81716;SDS011;71269;44.108;3.074;2023-07-31T16:21:28;5.43;;;2.25;;
81716;SDS011;71269;44.108;3.074;2023-07-31T16:23:54;4.75;;;2.22;;
81716;SDS011;71269;44.108;3.074;2023-07-31T16:26:19;8.30;;;2.50;;
81716;SDS011;71269;44.108;3.074;2023-07-31T16:28:45;5.90;;;2.72;;
81716;SDS011;71269;44.108;3.074;2023-07-31T16:31:10;6.13;;;2.33;;
81716;SDS011;71269;44.108;3.074;2023-07-31T16:33:36;4.57;;;2.30;;
81716;SDS011;71269;44.108;3.074;2023-07-31T16:36:01;5.88;;;2.75;;
81716;SDS011;71269;44.108;3.074;2023-07-31T16:38:26;6.03;;;2.72;;
81716;SDS011;71269;44.108;3.074;2023-07-31T16:40:52;5.65;;;2.65;;
81716;SDS011;71269;44.108;3.074;2023-07-31T16:43:17;3.88;;;2.33;;
81716;SDS011;71269;44.108;3.074;2023-07-31T16:45:43;6.45;;;2.60;;
81716;SDS011;71269;44.108;3.074;2023-07-31T16:48:08;7.20;;;2.35;;
81716;SDS011;71269;44.108;3.074;2023-07-31T16:50:33;5.60;;;2.72;;
81716;SDS011;71269;44.108;3.074;2023-07-31T16:52:59;6.53;;;2.80;;
81716;SDS011;71269;44.108;3.074;2023-07-31T16:55:24;5.45;;;2.28;;
81716;SDS011;71269;44.108;3.074;2023-07-31T16:57:50;4.13;;;2.58;;
81716;SDS011;71269;44.108;3.074;2023-07-31T17:00:15;7.07;;;2.88;;
81716;SDS011;71269;44.108;3.074;2023-07-31T17:02:40;7.38;;;2.90;;
81716;SDS011;71269;44.108;3.074;2023-07-31T17:05:06;5.85;;;2.47;;
81716;SDS011;71269;44.108;3.074;2023-07-31T17:07:33;6.82;;;2.58;;
81716;SDS011;71269;44.108;3.074;2023-07-31T17:09:58;6.28;;;2.85;;
81716;SDS011;71269;44.108;3.074;2023-07-31T17:12:23;6.85;;;2.88;;
81716;SDS011;71269;44.108;3.074;2023-07-31T17:14:49;5.45;;;2.83;;
81716;SDS011;71269;44.108;3.074;2023-07-31T17:17:14;5.78;;;3.00;;
81716;SDS011;71269;44.108;3.074;2023-07-31T17:19:40;6.10;;;3.28;;
81716;SDS011;71269;44.108;3.074;2023-07-31T17:22:05;8.05;;;3.55;;
81716;SDS011;71269;44.108;3.074;2023-07-31T17:24:30;6.07;;;3.00;;
81716;SDS011;71269;44.108;3.074;2023-07-31T17:26:56;5.70;;;2.75;;
81716;SDS011;71269;44.108;3.074;2023-07-31T17:29:26;7.82;;;3.38;;
81716;SDS011;71269;44.108;3.074;2023-07-31T17:31:52;6.38;;;3.20;;
81716;SDS011;71269;44.108;3.074;2023-07-31T17:34:18;6.38;;;3.10;;
81716;SDS011;71269;44.108;3.074;2023-07-31T17:36:43;7.03;;;3.22;;
81716;SDS011;71269;44.108;3.074;2023-07-31T17:39:09;8.45;;;3.42;;
81716;SDS011;71269;44.108;3.074;2023-07-31T17:41:34;6.47;;;3.30;;
81716;SDS011;71269;44.108;3.074;2023-07-31T17:43:59;6.43;;;3.63;;
81716;SDS011;71269;44.108;3.074;2023-07-31T17:46:25;8.95;;;3.72;;
81716;SDS011;71269;44.108;3.074;2023-07-31T17:48:50;8.00;;;3.63;;
81716;SDS011;71269;44.108;3.074;2023-07-31T17:51:16;7.00;;;3.35;;
81716;SDS011;71269;44.108;3.074;2023-07-31T17:53:42;7.78;;;3.65;;
81716;SDS011;71269;44.108;3.074;2023-07-31T17:56:07;7.38;;;3.70;;
81716;SDS011;71269;44.108;3.074;2023-07-31T17:58:33;7.47;;;3.78;;
81716;SDS011;71269;44.108;3.074;2023-07-31T18:00:58;8.32;;;3.80;;
81716;SDS011;71269;44.108;3.074;2023-07-31T18:03:24;7.45;;;3.90;;
81716;SDS011;71269;44.108;3.074;2023-07-31T18:05:50;7.20;;;3.55;;
81716;SDS011;71269;44.108;3.074;2023-07-31T18:08:16;7.53;;;3.60;;
81716;SDS011;71269;44.108;3.074;2023-07-31T18:10:45;8.63;;;3.83;;
81716;SDS011;71269;44.108;3.074;2023-07-31T18:13:11;6.03;;;3.55;;
81716;SDS011;71269;44.108;3.074;2023-07-31T18:15:37;7.53;;;3.95;;
81716;SDS011;71269;44.108;3.074;2023-07-31T18:18:04;7.40;;;3.75;;
81716;SDS011;71269;44.108;3.074;2023-07-31T18:20:30;6.88;;;3.47;;
81716;SDS011;71269;44.108;3.074;2023-07-31T18:22:55;6.53;;;3.63;;
81716;SDS011;71269;44.108;3.074;2023-07-31T18:25:20;6.20;;;3.47;;
81716;SDS011;71269;44.108;3.074;2023-07-31T18:27:46;6.45;;;3.70;;
81716;SDS011;71269;44.108;3.074;2023-07-31T18:30:11;7.70;;;3.55;;
81716;SDS011;71269;44.108;3.074;2023-07-31T18:32:37;8.60;;;3.65;;
81716;SDS011;71269;44.108;3.074;2023-07-31T18:35:02;7.05;;;3.58;;
81716;SDS011;71269;44.108;3.074;2023-07-31T18:37:28;6.97;;;3.60;;
81716;SDS011;71269;44.108;3.074;2023-07-31T18:39:53;7.65;;;4.18;;
81716;SDS011;71269;44.108;3.074;2023-07-31T18:42:19;7.07;;;3.53;;
81716;SDS011;71269;44.108;3.074;2023-07-31T18:44:44;8.02;;;3.72;;
81716;SDS011;71269;44.108;3.074;2023-07-31T18:47:11;7.68;;;3.97;;
81716;SDS011;71269;44.108;3.074;2023-07-31T18:49:36;6.85;;;3.38;;
81716;SDS011;71269;44.108;3.074;2023-07-31T18:52:01;8.20;;;3.85;;
81716;SDS011;71269;44.108;3.074;2023-07-31T18:54:27;8.32;;;3.95;;
81716;SDS011;71269;44.108;3.074;2023-07-31T18:56:52;7.47;;;3.47;;
81716;SDS011;71269;44.108;3.074;2023-07-31T18:59:18;8.32;;;3.80;;
81716;SDS011;71269;44.108;3.074;2023-07-31T19:01:43;8.32;;;4.40;;
81716;SDS011;71269;44.108;3.074;2023-07-31T19:04:10;8.98;;;3.83;;
81716;SDS011;71269;44.108;3.074;2023-07-31T19:06:36;7.05;;;4.00;;
81716;SDS011;71269;44.108;3.074;2023-07-31T19:09:03;9.05;;;4.07;;
81716;SDS011;71269;44.108;3.074;2023-07-31T19:11:29;6.30;;;3.88;;
81716;SDS011;71269;44.108;3.074;2023-07-31T19:13:54;8.18;;;3.80;;
81716;SDS011;71269;44.108;3.074;2023-07-31T19:16:20;7.90;;;3.63;;
81716;SDS011;71269;44.108;3.074;2023-07-31T19:18:45;7.25;;;3.90;;
81716;SDS011;71269;44.108;3.074;2023-07-31T19:21:10;7.78;;;4.00;;
81716;SDS011;71269;44.108;3.074;2023-07-31T19:23:36;7.55;;;3.85;;
81716;SDS011;71269;44.108;3.074;2023-07-31T19:26:01;7.30;;;3.78;;
81716;SDS011;71269;44.108;3.074;2023-07-31T19:28:28;8.18;;;3.60;;
81716;SDS011;71269;44.108;3.074;2023-07-31T19:30:54;7.28;;;4.10;;
81716;SDS011;71269;44.108;3.074;2023-07-31T19:33:19;7.80;;;3.95;;
81716;SDS011;71269;44.108;3.074;2023-07-31T19:35:52;6.47;;;3.88;;
81716;SDS011;71269;44.108;3.074;2023-07-31T19:38:19;8.25;;;3.85;;
81716;SDS011;71269;44.108;3.074;2023-07-31T19:40:44;9.55;;;3.60;;
81716;SDS011;71269;44.108;3.074;2023-07-31T19:43:10;8.85;;;3.85;;
81716;SDS011;71269;44.108;3.074;2023-07-31T19:45:35;7.22;;;3.83;;
81716;SDS011;71269;44.108;3.074;2023-07-31T19:48:00;10.18;;;4.68;;
81716;SDS011;71269;44.108;3.074;2023-07-31T19:50:26;7.22;;;4.28;;
81716;SDS011;71269;44.108;3.074;2023-07-31T19:52:51;9.82;;;4.65;;
81716;SDS011;71269;44.108;3.074;2023-07-31T19:55:17;8.88;;;4.80;;
81716;SDS011;71269;44.108;3.074;2023-07-31T19:57:42;7.95;;;4.72;;
81716;SDS011;71269;44.108;3.074;2023-07-31T20:00:07;9.48;;;4.53;;
81716;SDS011;71269;44.108;3.074;2023-07-31T20:02:33;8.60;;;4.45;;
81716;SDS011;71269;44.108;3.074;2023-07-31T20:04:58;9.85;;;4.88;;
81716;SDS011;71269;44.108;3.074;2023-07-31T20:07:24;8.65;;;4.45;;
81716;SDS011;71269;44.108;3.074;2023-07-31T20:09:49;8.15;;;4.30;;
81716;SDS011;71269;44.108;3.074;2023-07-31T20:12:16;10.00;;;4.82;;
81716;SDS011;71269;44.108;3.074;2023-07-31T20:14:41;10.13;;;4.32;;
81716;SDS011;71269;44.108;3.074;2023-07-31T20:17:07;9.02;;;4.32;;
81716;SDS011;71269;44.108;3.074;2023-07-31T20:19:32;10.30;;;5.18;;
81716;SDS011;71269;44.108;3.074;2023-07-31T20:21:57;8.70;;;4.20;;
81716;SDS011;71269;44.108;3.074;2023-07-31T20:24:23;8.27;;;4.65;;
81716;SDS011;71269;44.108;3.074;2023-07-31T20:26:48;9.82;;;5.05;;
81716;SDS011;71269;44.108;3.074;2023-07-31T20:29:14;10.23;;;4.72;;
81716;SDS011;71269;44.108;3.074;2023-07-31T20:31:39;9.48;;;5.00;;
81716;SDS011;71269;44.108;3.074;2023-07-31T20:34:05;9.15;;;4.75;;
81716;SDS011;71269;44.108;3.074;2023-07-31T20:36:35;9.95;;;5.15;;
81716;SDS011;71269;44.108;3.074;2023-07-31T20:39:01;10.73;;;4.88;;
81716;SDS011;71269;44.108;3.074;2023-07-31T20:41:27;8.43;;;4.85;;
81716;SDS011;71269;44.108;3.074;2023-07-31T20:43:52;10.32;;;4.63;;
81716;SDS011;71269;44.108;3.074;2023-07-31T20:46:18;9.23;;;4.88;;
81716;SDS011;71269;44.108;3.074;2023-07-31T20:48:43;9.00;;;4.78;;
81716;SDS011;71269;44.108;3.074;2023-07-31T20:51:08;10.40;;;5.10;;
81716;SDS011;71269;44.108;3.074;2023-07-31T20:53:34;9.40;;;4.93;;
81716;SDS011;71269;44.108;3.074;2023-07-31T20:55:59;9.25;;;4.70;;
81716;SDS011;71269;44.108;3.074;2023-07-31T20:58:24;10.82;;;5.00;;
81716;SDS011;71269;44.108;3.074;2023-07-31T21:00:50;10.05;;;5.07;;
81716;SDS011;71269;44.108;3.074;2023-07-31T21:03:15;10.30;;;5.10;;
81716;SDS011;71269;44.108;3.074;2023-07-31T21:05:48;8.75;;;4.72;;
81716;SDS011;71269;44.108;3.074;2023-07-31T21:08:17;10.32;;;5.20;;
81716;SDS011;71269;44.108;3.074;2023-07-31T21:10:42;9.15;;;5.10;;
81716;SDS011;71269;44.108;3.074;2023-07-31T21:13:08;10.10;;;4.55;;
81716;SDS011;71269;44.108;3.074;2023-07-31T21:15:33;9.43;;;4.85;;
81716;SDS011;71269;44.108;3.074;2023-07-31T21:17:58;11.43;;;4.93;;
81716;SDS011;71269;44.108;3.074;2023-07-31T21:20:24;9.70;;;4.68;;
81716;SDS011;71269;44.108;3.074;2023-07-31T21:22:49;11.65;;;4.95;;